Time,TemperatureF,DewpointF,PressureIn,WindDirection,WindDirectionDegrees,WindSpeedMPH,WindSpeedGustMPH,Humidity,HourlyPrecipIn,Conditions,Clouds,dailyrainin,SoftwareType,DateUTC
2014-03-11 00:22:00,35.0,32.0,30.19,West,272,0.0,4.0,89,0.00,,,0.22,,2014-03-11 07:22:00,
2014-03-11 00:42:00,33.0,30.0,30.20,ESE,105,0.0,1.0,90,0.00,,,0.22,,2014-03-11 07:42:00,
2014-03-11 00:52:00,31.0,29.0,30.21,NW,321,0.0,2.0,92,0.00,,,0.22,,2014-03-11 07:52:00,
2014-03-11 01:22:00,32.0,30.0,30.22,WNW,286,0.0,1.0,92,0.00,,,0.22,,2014-03-11 08:22:00,
2014-03-11 01:42:00,33.0,31.0,30.23,WNW,288,1.0,2.0,93,0.00,,,0.22,,2014-03-11 08:42:00,
2014-03-11 01:52:00,34.0,31.0,30.24,West,274,1.0,4.0,89,0.00,,,0.22,,2014-03-11 08:52:00,
2014-03-11 02:21:00,34.0,30.0,30.26,NNW,333,1.0,4.0,85,0.00,,,0.22,,2014-03-11 09:21:00,
2014-03-11 02:43:00,34.0,30.0,30.27,WNW,292,0.0,3.0,85,0.00,,,0.22,,2014-03-11 09:43:00,
2014-03-11 02:53:00,33.0,29.0,30.27,WNW,285,1.0,2.0,85,0.00,,,0.22,,2014-03-11 09:53:00,
2014-03-11 03:12:00,34.0,29.0,30.28,NW,305,2.0,4.0,83,0.00,,,0.22,,2014-03-11 10:12:00,
2014-03-11 03:22:00,34.0,29.0,30.28,WNW,300,1.0,3.0,81,0.00,,,0.22,,2014-03-11 10:22:00,
2014-03-11 03:43:00,35.0,29.0,30.29,WNW,284,1.0,3.0,80,0.00,,,0.21,,2014-03-11 10:43:00,
2014-03-11 03:53:00,35.0,29.0,30.29,WNW,292,1.0,3.0,78,0.00,,,0.21,,2014-03-11 10:53:00,
2014-03-11 04:22:00,36.0,29.0,30.31,WNW,296,0.0,2.0,74,0.00,,,0.21,,2014-03-11 11:22:00,
2014-03-11 04:42:00,33.0,28.0,30.32,NE,36,2.0,3.0,80,0.00,,,0.21,,2014-03-11 11:42:00,
2014-03-11 04:52:00,31.0,27.0,30.34,NNW,340,1.0,2.0,84,0.00,,,0.21,,2014-03-11 11:52:00,
2014-03-11 05:12:00,30.0,26.0,30.34,West,280,1.0,2.0,86,0.00,,,0.21,,2014-03-11 12:12:00,
2014-03-11 05:21:00,29.0,26.0,30.35,WNW,284,0.0,2.0,89,0.00,,,0.21,,2014-03-11 12:21:00,
2014-03-11 05:42:00,31.0,28.0,30.35,WNW,284,1.0,2.0,87,0.00,,,0.19,,2014-03-11 12:42:00,
2014-03-11 05:52:00,30.0,27.0,30.36,SW,224,1.0,4.0,87,0.00,,,0.19,,2014-03-11 12:52:00,
2014-03-11 06:11:00,30.0,27.0,30.35,West,272,0.0,1.0,90,0.00,,,0.19,,2014-03-11 13:11:00,
2014-03-11 06:21:00,29.0,26.0,30.37,WSW,257,2.0,3.0,89,0.00,,,0.19,,2014-03-11 13:21:00,
2014-03-11 06:42:00,29.0,27.0,30.37,West,268,0.0,1.0,91,0.00,,,0.12,,2014-03-11 13:42:00,
2014-03-11 06:53:00,28.0,26.0,30.39,NE,50,0.0,2.0,91,0.00,,,0.12,,2014-03-11 13:53:00,
2014-03-11 07:22:00,27.0,25.0,30.41,NNW,344,0.0,1.0,92,0.00,,,0.12,,2014-03-11 14:22:00,
2014-03-11 07:42:00,28.0,26.0,30.42,NNW,334,0.0,1.0,92,0.00,,,0.08,,2014-03-11 14:42:00,
2014-03-11 07:52:00,27.0,25.0,30.43,West,269,1.0,2.0,92,0.00,,,0.08,,2014-03-11 14:52:00,
2014-03-11 08:12:00,28.0,27.0,30.44,West,269,1.0,2.0,94,0.00,,,0.08,,2014-03-11 15:12:00,
2014-03-11 08:43:00,30.0,28.0,30.46,SSW,210,0.0,2.0,92,0.00,,,0.04,,2014-03-11 15:43:00,
2014-03-11 08:53:00,31.0,29.0,30.46,WSW,239,0.0,0.0,91,0.00,,,0.04,,2014-03-11 15:53:00,
2014-03-11 09:12:00,32.0,30.0,30.47,NNE,29,0.0,2.0,92,0.00,,,0.04,,2014-03-11 16:12:00,
2014-03-11 09:24:00,32.0,30.0,30.47,ENE,64,0.0,3.0,91,0.00,,,0.04,,2014-03-11 16:24:00,
2014-03-11 09:42:00,32.0,30.0,30.48,NE,36,1.0,4.0,91,0.00,,,0.01,,2014-03-11 16:42:00,
2014-03-11 09:53:00,33.0,31.0,30.48,NE,36,0.0,1.0,91,0.00,,,0.01,,2014-03-11 16:53:00,
2014-03-11 10:13:00,34.0,31.0,30.48,NNE,29,1.0,2.0,90,0.00,,,0.01,,2014-03-11 17:13:00,
2014-03-11 10:22:00,34.0,31.0,30.49,NNE,33,1.0,4.0,90,0.00,,,0.01,,2014-03-11 17:22:00,
2014-03-11 10:43:00,34.0,31.0,30.49,NE,53,3.0,4.0,89,0.00,,,0.00,,2014-03-11 17:43:00,
2014-03-11 10:52:00,35.0,32.0,30.50,NE,56,3.0,5.0,90,0.00,,,0.00,,2014-03-11 17:52:00,
2014-03-11 11:22:00,37.0,34.0,30.50,NE,54,2.0,4.0,90,0.00,,,0.00,,2014-03-11 18:22:00,
2014-03-11 11:42:00,38.0,35.0,30.50,SSW,213,1.0,5.0,88,0.00,,,0.00,,2014-03-11 18:42:00,
2014-03-11 11:52:00,41.0,37.0,30.49,ESE,122,0.0,3.0,86,0.01,,,0.01,,2014-03-11 18:52:00,
2014-03-11 12:11:00,42.0,38.0,30.49,ESE,111,1.0,4.0,84,0.01,,,0.01,,2014-03-11 19:11:00,
2014-03-11 12:21:00,42.0,37.0,30.50,SE,132,3.0,4.0,82,0.01,,,0.01,,2014-03-11 19:21:00,
2014-03-11 12:42:00,44.0,37.0,30.50,SE,138,1.0,5.0,77,0.01,,,0.01,,2014-03-11 19:42:00,
2014-03-11 12:52:00,44.0,36.0,30.49,SSW,202,2.0,4.0,74,0.00,,,0.01,,2014-03-11 19:52:00,
2014-03-11 13:22:00,46.0,37.0,30.49,SE,146,2.0,6.0,70,0.00,,,0.01,,2014-03-11 20:22:00,
2014-03-11 13:42:00,47.0,38.0,30.48,SE,126,4.0,8.0,71,0.00,,,0.01,,2014-03-11 20:42:00,
2014-03-11 13:53:00,47.0,35.0,30.47,WSW,241,6.0,8.0,63,0.00,,,0.01,,2014-03-11 20:53:00,
2014-03-11 14:12:00,47.0,33.0,30.47,NNW,329,0.0,8.0,59,0.00,,,0.01,,2014-03-11 21:12:00,
2014-03-11 14:22:00,49.0,36.0,30.47,SSW,198,3.0,7.0,61,0.00,,,0.01,,2014-03-11 21:22:00,
2014-03-11 14:43:00,49.0,33.0,30.47,SW,231,6.0,8.0,54,0.00,,,0.01,,2014-03-11 21:43:00,
2014-03-11 14:53:00,49.0,31.0,30.46,WSW,239,8.0,11.0,49,0.00,,,0.01,,2014-03-11 21:53:00,
2014-03-11 15:12:00,50.0,32.0,30.46,SSW,212,7.0,10.0,50,0.00,,,0.01,,2014-03-11 22:12:00,
2014-03-11 15:23:00,50.0,34.0,30.46,SW,235,10.0,14.0,55,0.00,,,0.01,,2014-03-11 22:23:00,
2014-03-11 15:43:00,50.0,34.0,30.46,SW,221,10.0,13.0,55,0.00,,,0.01,,2014-03-11 22:43:00,
2014-03-11 15:53:00,50.0,34.0,30.46,SSW,211,7.0,10.0,55,0.00,,,0.01,,2014-03-11 22:53:00,
2014-03-11 16:22:00,50.0,32.0,30.45,SW,229,5.0,11.0,50,0.00,,,0.01,,2014-03-11 23:22:00,
2014-03-11 16:42:00,50.0,34.0,30.44,SSW,204,9.0,13.0,53,0.00,,,0.01,,2014-03-11 23:42:00,
2014-03-11 16:52:00,50.0,33.0,30.44,SSW,205,10.0,13.0,52,0.00,,,0.01,,2014-03-11 23:52:00,
2014-03-11 17:12:00,50.0,33.0,30.44,SSW,212,8.0,11.0,52,0.00,,,0.01,,2014-03-12 00:12:00,
2014-03-11 17:22:00,50.0,32.0,30.44,SW,215,7.0,13.0,50,0.00,,,0.01,,2014-03-12 00:22:00,
2014-03-11 17:42:00,50.0,34.0,30.43,SW,227,8.0,12.0,54,0.00,,,0.01,,2014-03-12 00:42:00,
2014-03-11 17:52:00,49.0,32.0,30.44,SSW,204,9.0,11.0,52,0.00,,,0.01,,2014-03-12 00:52:00,
2014-03-11 18:11:00,48.0,30.0,30.43,SW,214,8.0,14.0,50,0.00,,,0.01,,2014-03-12 01:11:00,
2014-03-11 18:22:00,47.0,32.0,30.43,SW,224,6.0,10.0,55,0.00,,,0.01,,2014-03-12 01:22:00,
2014-03-11 18:42:00,46.0,31.0,30.43,SW,215,7.0,9.0,55,0.00,,,0.01,,2014-03-12 01:42:00,
2014-03-11 18:53:00,45.0,30.0,30.43,SW,234,5.0,7.0,56,0.00,,,0.01,,2014-03-12 01:53:00,
2014-03-11 19:22:00,44.0,28.0,30.44,SW,235,3.0,6.0,54,0.00,,,0.01,,2014-03-12 02:22:00,
2014-03-11 19:42:00,43.0,29.0,30.45,West,279,2.0,4.0,58,0.00,,,0.01,,2014-03-12 02:42:00,
2014-03-11 19:52:00,42.0,30.0,30.45,West,273,4.0,7.0,61,0.00,,,0.01,,2014-03-12 02:52:00,
2014-03-11 20:12:00,41.0,29.0,30.45,WNW,292,3.0,6.0,61,0.00,,,0.01,,2014-03-12 03:12:00,
2014-03-11 20:21:00,40.0,29.0,30.45,SW,228,4.0,7.0,64,0.00,,,0.01,,2014-03-12 03:21:00,
2014-03-11 20:42:00,41.0,29.0,30.45,SW,236,5.0,7.0,62,0.00,,,0.01,,2014-03-12 03:42:00,
2014-03-11 20:53:00,40.0,29.0,30.45,SW,236,5.0,6.0,64,0.00,,,0.01,,2014-03-12 03:53:00,
2014-03-11 21:22:00,41.0,29.0,30.45,SW,231,6.0,8.0,61,0.00,,,0.01,,2014-03-12 04:22:00,
2014-03-11 21:43:00,41.0,30.0,30.45,SW,222,4.0,7.0,64,0.00,,,0.01,,2014-03-12 04:43:00,
2014-03-11 21:54:00,41.0,30.0,30.45,WSW,243,4.0,6.0,65,0.00,,,0.01,,2014-03-12 04:54:00,
2014-03-11 22:12:00,40.0,30.0,30.46,SW,227,3.0,5.0,66,0.00,,,0.01,,2014-03-12 05:12:00,
2014-03-11 22:22:00,39.0,29.0,30.45,WSW,257,3.0,5.0,67,0.00,,,0.01,,2014-03-12 05:22:00,
2014-03-11 22:52:00,38.0,29.0,30.45,WSW,239,2.0,3.0,70,0.00,,,0.01,,2014-03-12 05:52:00,
2014-03-11 23:21:00,35.0,28.0,30.46,WSW,257,0.0,0.0,75,0.00,,,0.01,,2014-03-12 06:21:00,
2014-03-11 23:42:00,34.0,28.0,30.46,WSW,257,0.0,1.0,77,0.00,,,0.01,,2014-03-12 06:42:00,
2014-03-11 23:52:00,36.0,29.0,30.45,WNW,288,0.0,2.0,75,0.00,,,0.01,,2014-03-12 06:52:00,